Hobbs, New Mexico
Current Conditions -  °F | °C
As of 2:50 PM on Wednesday 22 Oct 2014 (Local Time) from KHOB Reporting Station
Scattered Clouds Scattered Clouds  
Wind Chill: 22°   Ceiling: Unl
Heat Index: 22°   Visibility: 10mi
Dew Point: 13°   Wind: 6mph
Humidity: 57%   Direction: 190°S
Pressure: 30.09"   Gusts: NA
Location:  32.7°N, 103.12°W
Report Text: KHOB 222050Z 19005KT 10SM SCT050 22/13 A3009
Loading
Personal Weather Stations






























Interactive Weather Map
Tropical Storm Tracking
New forecast layout! Learn more

10-Day Weather Forecast

Advertisements
Track Severe Weather on mobile